sensor_id;sensor_type;location;lat;lon;timestamp;temperature;humidity
13721;DHT22;6932;51.438;5.470;2023-08-06T00:00:06;19.10;99.90
13721;DHT22;6932;51.438;5.470;2023-08-06T00:02:32;19.10;99.90
13721;DHT22;6932;51.438;5.470;2023-08-06T00:04:58;19.10;99.90
13721;DHT22;6932;51.438;5.470;2023-08-06T00:07:23;19.10;99.90
13721;DHT22;6932;51.438;5.470;2023-08-06T00:09:49;19.10;99.90
13721;DHT22;6932;51.438;5.470;2023-08-06T00:12:15;19.10;99.90
13721;DHT22;6932;51.438;5.470;2023-08-06T00:14:40;19.10;99.90
13721;DHT22;6932;51.438;5.470;2023-08-06T00:17:06;19.10;99.90
13721;DHT22;6932;51.438;5.470;2023-08-06T00:19:32;19.10;99.90
13721;DHT22;6932;51.438;5.470;2023-08-06T00:21:58;19.10;99.90
13721;DHT22;6932;51.438;5.470;2023-08-06T00:24:23;19.10;99.90
13721;DHT22;6932;51.438;5.470;2023-08-06T00:26:49;19.10;99.90
13721;DHT22;6932;51.438;5.470;2023-08-06T00:29:15;19.10;99.90
13721;DHT22;6932;51.438;5.470;2023-08-06T00:31:41;19.10;99.90
13721;DHT22;6932;51.438;5.470;2023-08-06T00:34:06;19.10;99.90
13721;DHT22;6932;51.438;5.470;2023-08-06T00:36:32;19.00;99.90
13721;DHT22;6932;51.438;5.470;2023-08-06T00:38:58;19.10;99.90
13721;DHT22;6932;51.438;5.470;2023-08-06T00:41:24;19.10;99.90
13721;DHT22;6932;51.438;5.470;2023-08-06T00:43:49;19.00;99.90
13721;DHT22;6932;51.438;5.470;2023-08-06T00:46:15;19.00;99.90
13721;DHT22;6932;51.438;5.470;2023-08-06T00:48:42;19.00;99.90
13721;DHT22;6932;51.438;5.470;2023-08-06T00:51:10;19.00;99.90
13721;DHT22;6932;51.438;5.470;2023-08-06T00:53:37;19.00;99.90
13721;DHT22;6932;51.438;5.470;2023-08-06T00:56:05;19.00;99.90
13721;DHT22;6932;51.438;5.470;2023-08-06T00:58:33;19.00;99.90
13721;DHT22;6932;51.438;5.470;2023-08-06T01:01:00;18.90;99.90
13721;DHT22;6932;51.438;5.470;2023-08-06T01:03:26;18.90;99.90
13721;DHT22;6932;51.438;5.470;2023-08-06T01:05:52;18.90;99.90
13721;DHT22;6932;51.438;5.470;2023-08-06T01:08:51;18.90;99.90
13721;DHT22;6932;51.438;5.470;2023-08-06T01:11:44;18.90;99.90
13721;DHT22;6932;51.438;5.470;2023-08-06T01:14:37;18.90;99.90
13721;DHT22;6932;51.438;5.470;2023-08-06T01:17:26;18.90;99.90
13721;DHT22;6932;51.438;5.470;2023-08-06T01:19:55;18.90;99.90
13721;DHT22;6932;51.438;5.470;2023-08-06T01:22:20;18.90;99.90
13721;DHT22;6932;51.438;5.470;2023-08-06T01:24:48;18.90;99.90
13721;DHT22;6932;51.438;5.470;2023-08-06T01:27:26;18.80;99.90
13721;DHT22;6932;51.438;5.470;2023-08-06T01:30:25;18.80;99.90
13721;DHT22;6932;51.438;5.470;2023-08-06T01:32:58;18.80;99.90
13721;DHT22;6932;51.438;5.470;2023-08-06T01:35:30;18.80;99.90
13721;DHT22;6932;51.438;5.470;2023-08-06T01:37:56;18.80;99.90
13721;DHT22;6932;51.438;5.470;2023-08-06T01:40:22;18.80;99.90
13721;DHT22;6932;51.438;5.470;2023-08-06T01:46:29;18.80;99.90
13721;DHT22;6932;51.438;5.470;2023-08-06T01:48:55;18.80;99.90
13721;DHT22;6932;51.438;5.470;2023-08-06T01:51:20;18.80;99.90
13721;DHT22;6932;51.438;5.470;2023-08-06T01:53:46;18.80;99.90
13721;DHT22;6932;51.438;5.470;2023-08-06T01:56:12;18.80;99.90
13721;DHT22;6932;51.438;5.470;2023-08-06T01:58:37;18.80;99.90
13721;DHT22;6932;51.438;5.470;2023-08-06T02:01:03;18.80;99.90
13721;DHT22;6932;51.438;5.470;2023-08-06T02:03:29;18.80;99.90
13721;DHT22;6932;51.438;5.470;2023-08-06T02:05:55;18.80;99.90
13721;DHT22;6932;51.438;5.470;2023-08-06T02:08:20;18.80;99.90
13721;DHT22;6932;51.438;5.470;2023-08-06T02:10:46;18.80;99.90
13721;DHT22;6932;51.438;5.470;2023-08-06T02:13:12;18.80;99.90
13721;DHT22;6932;51.438;5.470;2023-08-06T02:15:44;18.80;99.90
13721;DHT22;6932;51.438;5.470;2023-08-06T02:18:13;18.80;99.90
13721;DHT22;6932;51.438;5.470;2023-08-06T02:20:42;18.70;99.90
13721;DHT22;6932;51.438;5.470;2023-08-06T02:23:08;18.70;99.90
13721;DHT22;6932;51.438;5.470;2023-08-06T02:25:34;18.70;99.90
13721;DHT22;6932;51.438;5.470;2023-08-06T02:28:00;18.70;99.90
13721;DHT22;6932;51.438;5.470;2023-08-06T02:30:26;18.70;99.90
13721;DHT22;6932;51.438;5.470;2023-08-06T02:32:52;18.70;99.90
13721;DHT22;6932;51.438;5.470;2023-08-06T02:35:18;18.70;99.90
13721;DHT22;6932;51.438;5.470;2023-08-06T02:37:43;18.80;99.90
13721;DHT22;6932;51.438;5.470;2023-08-06T02:40:09;18.70;99.90
13721;DHT22;6932;51.438;5.470;2023-08-06T02:42:35;18.70;99.90
13721;DHT22;6932;51.438;5.470;2023-08-06T02:45:01;18.70;99.90
13721;DHT22;6932;51.438;5.470;2023-08-06T02:47:27;18.70;99.90
13721;DHT22;6932;51.438;5.470;2023-08-06T02:49:53;18.80;99.90
13721;DHT22;6932;51.438;5.470;2023-08-06T02:52:19;18.70;99.90
13721;DHT22;6932;51.438;5.470;2023-08-06T02:54:44;18.80;99.90
13721;DHT22;6932;51.438;5.470;2023-08-06T02:57:10;18.80;99.90
13721;DHT22;6932;51.438;5.470;2023-08-06T02:59:36;18.80;99.90
13721;DHT22;6932;51.438;5.470;2023-08-06T03:02:01;18.80;99.90
13721;DHT22;6932;51.438;5.470;2023-08-06T03:04:27;18.80;99.90
13721;DHT22;6932;51.438;5.470;2023-08-06T03:06:53;18.80;99.90
13721;DHT22;6932;51.438;5.470;2023-08-06T03:09:19;18.80;99.90
13721;DHT22;6932;51.438;5.470;2023-08-06T03:11:44;18.80;99.90
13721;DHT22;6932;51.438;5.470;2023-08-06T03:14:10;18.80;99.90
13721;DHT22;6932;51.438;5.470;2023-08-06T03:16:36;18.80;99.90
13721;DHT22;6932;51.438;5.470;2023-08-06T03:19:02;18.80;99.90
13721;DHT22;6932;51.438;5.470;2023-08-06T03:21:27;18.80;99.90
13721;DHT22;6932;51.438;5.470;2023-08-06T03:23:53;18.80;99.90
13721;DHT22;6932;51.438;5.470;2023-08-06T03:26:19;18.80;99.90
13721;DHT22;6932;51.438;5.470;2023-08-06T03:28:45;18.80;99.90
13721;DHT22;6932;51.438;5.470;2023-08-06T03:31:10;18.80;99.90
13721;DHT22;6932;51.438;5.470;2023-08-06T03:33:36;18.80;99.90
13721;DHT22;6932;51.438;5.470;2023-08-06T03:36:02;18.80;99.90
13721;DHT22;6932;51.438;5.470;2023-08-06T03:38:28;18.80;99.90
13721;DHT22;6932;51.438;5.470;2023-08-06T03:40:54;18.80;99.90
13721;DHT22;6932;51.438;5.470;2023-08-06T03:43:19;18.80;99.90
13721;DHT22;6932;51.438;5.470;2023-08-06T03:45:45;18.80;99.90
13721;DHT22;6932;51.438;5.470;2023-08-06T03:48:11;18.80;99.90
13721;DHT22;6932;51.438;5.470;2023-08-06T03:50:36;18.80;99.90
13721;DHT22;6932;51.438;5.470;2023-08-06T03:53:03;18.80;99.90
13721;DHT22;6932;51.438;5.470;2023-08-06T03:55:29;18.80;99.90
13721;DHT22;6932;51.438;5.470;2023-08-06T03:57:54;18.80;99.90
13721;DHT22;6932;51.438;5.470;2023-08-06T04:00:20;18.80;99.90
13721;DHT22;6932;51.438;5.470;2023-08-06T04:02:46;18.80;99.90
13721;DHT22;6932;51.438;5.470;2023-08-06T04:05:12;18.80;99.90
13721;DHT22;6932;51.438;5.470;2023-08-06T04:07:38;18.70;99.90
13721;DHT22;6932;51.438;5.470;2023-08-06T04:10:05;18.70;99.90
13721;DHT22;6932;51.438;5.470;2023-08-06T04:12:31;18.70;99.90
13721;DHT22;6932;51.438;5.470;2023-08-06T04:15:00;18.70;99.90
13721;DHT22;6932;51.438;5.470;2023-08-06T04:17:26;18.70;99.90
13721;DHT22;6932;51.438;5.470;2023-08-06T04:19:53;18.70;99.90
13721;DHT22;6932;51.438;5.470;2023-08-06T04:22:20;18.70;99.90
13721;DHT22;6932;51.438;5.470;2023-08-06T04:24:47;18.70;99.90
13721;DHT22;6932;51.438;5.470;2023-08-06T04:27:14;18.70;99.90
13721;DHT22;6932;51.438;5.470;2023-08-06T04:29:40;18.70;99.90
13721;DHT22;6932;51.438;5.470;2023-08-06T04:32:08;18.70;99.90
13721;DHT22;6932;51.438;5.470;2023-08-06T04:34:36;18.70;99.90
13721;DHT22;6932;51.438;5.470;2023-08-06T04:37:03;18.70;99.90
13721;DHT22;6932;51.438;5.470;2023-08-06T04:39:30;18.70;99.90
13721;DHT22;6932;51.438;5.470;2023-08-06T04:41:56;18.80;99.90
13721;DHT22;6932;51.438;5.470;2023-08-06T04:44:25;18.70;99.90
13721;DHT22;6932;51.438;5.470;2023-08-06T04:46:51;18.80;99.90
13721;DHT22;6932;51.438;5.470;2023-08-06T04:49:17;18.80;99.90
13721;DHT22;6932;51.438;5.470;2023-08-06T04:51:45;18.80;99.90
13721;DHT22;6932;51.438;5.470;2023-08-06T04:54:10;18.80;99.90
13721;DHT22;6932;51.438;5.470;2023-08-06T04:56:36;18.80;99.90
13721;DHT22;6932;51.438;5.470;2023-08-06T04:59:02;18.80;99.90
13721;DHT22;6932;51.438;5.470;2023-08-06T05:01:27;18.80;99.90
13721;DHT22;6932;51.438;5.470;2023-08-06T05:03:54;18.90;99.90
13721;DHT22;6932;51.438;5.470;2023-08-06T05:06:19;18.90;99.90
13721;DHT22;6932;51.438;5.470;2023-08-06T05:08:45;18.90;99.90
13721;DHT22;6932;51.438;5.470;2023-08-06T05:11:11;18.90;99.90
13721;DHT22;6932;51.438;5.470;2023-08-06T05:13:36;18.90;99.90
13721;DHT22;6932;51.438;5.470;2023-08-06T05:16:02;18.90;99.90
13721;DHT22;6932;51.438;5.470;2023-08-06T05:18:28;19.00;99.90
13721;DHT22;6932;51.438;5.470;2023-08-06T05:20:55;19.00;99.90
13721;DHT22;6932;51.438;5.470;2023-08-06T05:23:21;19.00;99.90
13721;DHT22;6932;51.438;5.470;2023-08-06T05:25:47;19.00;99.90
13721;DHT22;6932;51.438;5.470;2023-08-06T05:28:12;19.10;99.90
13721;DHT22;6932;51.438;5.470;2023-08-06T05:30:41;19.10;99.90
13721;DHT22;6932;51.438;5.470;2023-08-06T05:33:07;19.20;99.90
13721;DHT22;6932;51.438;5.470;2023-08-06T05:35:33;19.20;99.90
13721;DHT22;6932;51.438;5.470;2023-08-06T05:37:58;19.20;99.90
13721;DHT22;6932;51.438;5.470;2023-08-06T05:40:24;19.30;99.90
13721;DHT22;6932;51.438;5.470;2023-08-06T05:42:53;19.30;99.90
13721;DHT22;6932;51.438;5.470;2023-08-06T05:45:19;19.30;99.90
13721;DHT22;6932;51.438;5.470;2023-08-06T05:47:45;19.40;99.90
13721;DHT22;6932;51.438;5.470;2023-08-06T05:50:11;19.40;99.90
13721;DHT22;6932;51.438;5.470;2023-08-06T05:52:36;19.40;99.90
13721;DHT22;6932;51.438;5.470;2023-08-06T05:55:02;19.40;99.90
13721;DHT22;6932;51.438;5.470;2023-08-06T05:57:28;19.40;99.90
13721;DHT22;6932;51.438;5.470;2023-08-06T05:59:54;19.40;99.90
13721;DHT22;6932;51.438;5.470;2023-08-06T06:02:20;19.40;99.90
13721;DHT22;6932;51.438;5.470;2023-08-06T06:04:45;19.40;99.90
13721;DHT22;6932;51.438;5.470;2023-08-06T06:07:11;19.40;99.90
13721;DHT22;6932;51.438;5.470;2023-08-06T06:09:37;19.40;99.90
13721;DHT22;6932;51.438;5.470;2023-08-06T06:12:05;19.40;99.90
13721;DHT22;6932;51.438;5.470;2023-08-06T06:14:31;19.50;99.90
13721;DHT22;6932;51.438;5.470;2023-08-06T06:16:58;19.50;99.90
13721;DHT22;6932;51.438;5.470;2023-08-06T06:19:25;19.50;99.90
13721;DHT22;6932;51.438;5.470;2023-08-06T06:21:51;19.60;99.90
13721;DHT22;6932;51.438;5.470;2023-08-06T06:24:17;19.70;99.90
13721;DHT22;6932;51.438;5.470;2023-08-06T06:26:42;19.70;99.90
13721;DHT22;6932;51.438;5.470;2023-08-06T06:29:08;19.60;99.90
13721;DHT22;6932;51.438;5.470;2023-08-06T06:31:34;19.70;99.90
13721;DHT22;6932;51.438;5.470;2023-08-06T06:33:59;19.70;99.90
13721;DHT22;6932;51.438;5.470;2023-08-06T06:36:25;19.60;99.90
13721;DHT22;6932;51.438;5.470;2023-08-06T06:38:51;19.70;99.90
13721;DHT22;6932;51.438;5.470;2023-08-06T06:41:16;19.70;99.90
13721;DHT22;6932;51.438;5.470;2023-08-06T06:43:42;19.70;99.90
13721;DHT22;6932;51.438;5.470;2023-08-06T06:46:08;19.60;99.90
13721;DHT22;6932;51.438;5.470;2023-08-06T06:48:33;19.70;99.90
13721;DHT22;6932;51.438;5.470;2023-08-06T06:50:59;19.70;99.90
13721;DHT22;6932;51.438;5.470;2023-08-06T06:53:25;19.70;99.90
13721;DHT22;6932;51.438;5.470;2023-08-06T06:56:01;19.60;99.90
13721;DHT22;6932;51.438;5.470;2023-08-06T06:58:28;19.60;99.90
13721;DHT22;6932;51.438;5.470;2023-08-06T07:00:54;19.60;99.90
13721;DHT22;6932;51.438;5.470;2023-08-06T07:03:20;19.50;99.90
13721;DHT22;6932;51.438;5.470;2023-08-06T07:05:46;19.40;99.90
13721;DHT22;6932;51.438;5.470;2023-08-06T07:08:12;19.40;99.90
13721;DHT22;6932;51.438;5.470;2023-08-06T07:10:40;19.20;99.90
13721;DHT22;6932;51.438;5.470;2023-08-06T07:13:06;19.10;99.90
13721;DHT22;6932;51.438;5.470;2023-08-06T07:15:32;19.10;99.90
13721;DHT22;6932;51.438;5.470;2023-08-06T07:17:57;19.00;99.90
13721;DHT22;6932;51.438;5.470;2023-08-06T07:20:23;18.90;99.90
13721;DHT22;6932;51.438;5.470;2023-08-06T07:22:49;18.80;99.90
13721;DHT22;6932;51.438;5.470;2023-08-06T07:25:16;18.70;99.90
13721;DHT22;6932;51.438;5.470;2023-08-06T07:27:42;18.70;99.90
13721;DHT22;6932;51.438;5.470;2023-08-06T07:30:08;18.70;99.90
13721;DHT22;6932;51.438;5.470;2023-08-06T07:32:34;18.60;99.90
13721;DHT22;6932;51.438;5.470;2023-08-06T07:35:00;18.60;99.90
13721;DHT22;6932;51.438;5.470;2023-08-06T07:37:28;18.50;99.90
13721;DHT22;6932;51.438;5.470;2023-08-06T07:39:54;18.50;99.90
13721;DHT22;6932;51.438;5.470;2023-08-06T07:42:21;18.50;99.90
13721;DHT22;6932;51.438;5.470;2023-08-06T07:44:58;18.50;99.90
13721;DHT22;6932;51.438;5.470;2023-08-06T07:47:24;18.50;99.90
13721;DHT22;6932;51.438;5.470;2023-08-06T07:49:50;18.50;99.90
13721;DHT22;6932;51.438;5.470;2023-08-06T07:52:15;18.50;99.90
13721;DHT22;6932;51.438;5.470;2023-08-06T07:54:41;18.50;99.90
13721;DHT22;6932;51.438;5.470;2023-08-06T07:57:07;18.50;99.90
13721;DHT22;6932;51.438;5.470;2023-08-06T07:59:33;18.40;99.90
13721;DHT22;6932;51.438;5.470;2023-08-06T08:01:59;18.40;99.90
13721;DHT22;6932;51.438;5.470;2023-08-06T08:04:25;18.40;99.90
13721;DHT22;6932;51.438;5.470;2023-08-06T08:06:50;18.40;99.90
13721;DHT22;6932;51.438;5.470;2023-08-06T08:09:16;18.40;99.90
13721;DHT22;6932;51.438;5.470;2023-08-06T08:11:42;18.40;99.90
13721;DHT22;6932;51.438;5.470;2023-08-06T08:14:08;18.40;99.90
13721;DHT22;6932;51.438;5.470;2023-08-06T08:16:34;18.40;99.90
13721;DHT22;6932;51.438;5.470;2023-08-06T08:18:59;18.50;99.90
13721;DHT22;6932;51.438;5.470;2023-08-06T08:21:25;18.50;99.90
13721;DHT22;6932;51.438;5.470;2023-08-06T08:23:51;18.50;99.90
13721;DHT22;6932;51.438;5.470;2023-08-06T08:26:17;18.50;99.90
13721;DHT22;6932;51.438;5.470;2023-08-06T08:28:43;18.50;99.90
13721;DHT22;6932;51.438;5.470;2023-08-06T08:31:12;18.50;99.90
13721;DHT22;6932;51.438;5.470;2023-08-06T08:33:38;18.60;99.90
13721;DHT22;6932;51.438;5.470;2023-08-06T08:36:04;18.60;99.90
13721;DHT22;6932;51.438;5.470;2023-08-06T08:38:30;18.60;99.90
13721;DHT22;6932;51.438;5.470;2023-08-06T08:40:55;18.60;99.90
13721;DHT22;6932;51.438;5.470;2023-08-06T08:43:21;18.60;99.90
13721;DHT22;6932;51.438;5.470;2023-08-06T08:45:51;18.60;99.90
13721;DHT22;6932;51.438;5.470;2023-08-06T08:48:18;18.70;99.90
13721;DHT22;6932;51.438;5.470;2023-08-06T08:50:46;18.70;99.90
13721;DHT22;6932;51.438;5.470;2023-08-06T08:53:16;18.70;99.90
13721;DHT22;6932;51.438;5.470;2023-08-06T08:55:43;18.70;99.90
13721;DHT22;6932;51.438;5.470;2023-08-06T08:58:12;18.70;99.90
13721;DHT22;6932;51.438;5.470;2023-08-06T09:00:40;18.60;99.90
13721;DHT22;6932;51.438;5.470;2023-08-06T09:03:08;18.60;99.90
13721;DHT22;6932;51.438;5.470;2023-08-06T09:05:34;18.70;99.90
13721;DHT22;6932;51.438;5.470;2023-08-06T09:08:03;18.60;99.90
13721;DHT22;6932;51.438;5.470;2023-08-06T09:10:30;18.60;99.90
13721;DHT22;6932;51.438;5.470;2023-08-06T09:12:57;18.60;99.90
13721;DHT22;6932;51.438;5.470;2023-08-06T09:15:27;18.60;99.90
13721;DHT22;6932;51.438;5.470;2023-08-06T09:17:54;18.70;99.90
13721;DHT22;6932;51.438;5.470;2023-08-06T09:20:20;18.70;99.90
13721;DHT22;6932;51.438;5.470;2023-08-06T09:22:46;18.60;99.90
13721;DHT22;6932;51.438;5.470;2023-08-06T09:25:22;18.70;99.90
13721;DHT22;6932;51.438;5.470;2023-08-06T09:27:51;18.70;99.90
13721;DHT22;6932;51.438;5.470;2023-08-06T09:30:31;18.70;99.90
13721;DHT22;6932;51.438;5.470;2023-08-06T09:32:59;18.70;99.90
13721;DHT22;6932;51.438;5.470;2023-08-06T09:35:27;18.70;99.90
13721;DHT22;6932;51.438;5.470;2023-08-06T09:37:54;18.70;99.90
13721;DHT22;6932;51.438;5.470;2023-08-06T09:40:28;18.70;99.90
13721;DHT22;6932;51.438;5.470;2023-08-06T09:42:55;18.70;99.90
13721;DHT22;6932;51.438;5.470;2023-08-06T09:45:22;18.70;99.90
13721;DHT22;6932;51.438;5.470;2023-08-06T09:47:50;18.70;99.90
13721;DHT22;6932;51.438;5.470;2023-08-06T09:50:17;18.70;99.90
13721;DHT22;6932;51.438;5.470;2023-08-06T09:52:44;18.80;99.90
13721;DHT22;6932;51.438;5.470;2023-08-06T09:55:14;18.70;99.90
13721;DHT22;6932;51.438;5.470;2023-08-06T09:57:41;18.70;99.90
13721;DHT22;6932;51.438;5.470;2023-08-06T10:00:08;18.70;99.90
13721;DHT22;6932;51.438;5.470;2023-08-06T10:02:39;18.70;99.90
13721;DHT22;6932;51.438;5.470;2023-08-06T10:05:07;18.70;99.90
13721;DHT22;6932;51.438;5.470;2023-08-06T10:07:34;18.80;99.90
13721;DHT22;6932;51.438;5.470;2023-08-06T10:10:00;18.70;99.90
13721;DHT22;6932;51.438;5.470;2023-08-06T10:12:30;18.80;99.90
13721;DHT22;6932;51.438;5.470;2023-08-06T10:15:03;18.80;99.90
13721;DHT22;6932;51.438;5.470;2023-08-06T10:17:34;18.80;99.90
13721;DHT22;6932;51.438;5.470;2023-08-06T10:20:04;18.80;99.90
13721;DHT22;6932;51.438;5.470;2023-08-06T10:22:33;18.80;99.90
13721;DHT22;6932;51.438;5.470;2023-08-06T10:25:00;18.80;99.90
13721;DHT22;6932;51.438;5.470;2023-08-06T10:30:32;18.80;99.90
13721;DHT22;6932;51.438;5.470;2023-08-06T10:32:59;18.90;99.90
13721;DHT22;6932;51.438;5.470;2023-08-06T10:38:10;18.80;99.90
13721;DHT22;6932;51.438;5.470;2023-08-06T10:45:58;18.80;99.90
13721;DHT22;6932;51.438;5.470;2023-08-06T10:48:36;18.90;99.90
13721;DHT22;6932;51.438;5.470;2023-08-06T10:51:10;18.90;99.90
13721;DHT22;6932;51.438;5.470;2023-08-06T10:53:37;18.90;99.90
13721;DHT22;6932;51.438;5.470;2023-08-06T10:56:17;18.90;99.90
13721;DHT22;6932;51.438;5.470;2023-08-06T10:58:45;18.90;99.90
13721;DHT22;6932;51.438;5.470;2023-08-06T11:01:11;18.90;99.90
13721;DHT22;6932;51.438;5.470;2023-08-06T11:03:38;19.00;99.90
13721;DHT22;6932;51.438;5.470;2023-08-06T11:06:09;19.00;99.90
13721;DHT22;6932;51.438;5.470;2023-08-06T11:08:37;19.00;99.90
13721;DHT22;6932;51.438;5.470;2023-08-06T11:11:13;19.00;99.90
13721;DHT22;6932;51.438;5.470;2023-08-06T11:13:45;19.10;99.90
13721;DHT22;6932;51.438;5.470;2023-08-06T11:16:17;19.10;99.90
13721;DHT22;6932;51.438;5.470;2023-08-06T11:18:44;19.10;99.90
13721;DHT22;6932;51.438;5.470;2023-08-06T11:21:11;19.20;99.90
13721;DHT22;6932;51.438;5.470;2023-08-06T11:23:40;19.20;99.90
13721;DHT22;6932;51.438;5.470;2023-08-06T11:26:06;19.20;99.90
13721;DHT22;6932;51.438;5.470;2023-08-06T11:28:33;19.20;99.90
13721;DHT22;6932;51.438;5.470;2023-08-06T11:30:59;19.20;99.90
13721;DHT22;6932;51.438;5.470;2023-08-06T11:33:28;19.20;99.90
13721;DHT22;6932;51.438;5.470;2023-08-06T11:35:58;19.20;99.90
13721;DHT22;6932;51.438;5.470;2023-08-06T11:38:26;19.20;99.90
13721;DHT22;6932;51.438;5.470;2023-08-06T11:40:52;19.20;99.90
13721;DHT22;6932;51.438;5.470;2023-08-06T11:43:19;19.30;99.90
13721;DHT22;6932;51.438;5.470;2023-08-06T11:45:46;19.30;99.90
13721;DHT22;6932;51.438;5.470;2023-08-06T11:48:12;19.30;99.90
13721;DHT22;6932;51.438;5.470;2023-08-06T11:50:38;19.30;99.90
13721;DHT22;6932;51.438;5.470;2023-08-06T11:53:04;19.30;99.90
13721;DHT22;6932;51.438;5.470;2023-08-06T11:55:30;19.30;99.90
13721;DHT22;6932;51.438;5.470;2023-08-06T11:57:57;19.30;99.90
13721;DHT22;6932;51.438;5.470;2023-08-06T12:00:24;19.40;99.90
13721;DHT22;6932;51.438;5.470;2023-08-06T12:02:51;19.40;99.90
13721;DHT22;6932;51.438;5.470;2023-08-06T12:05:21;19.40;99.90
13721;DHT22;6932;51.438;5.470;2023-08-06T12:07:51;19.50;99.90
13721;DHT22;6932;51.438;5.470;2023-08-06T12:10:23;19.50;99.90
13721;DHT22;6932;51.438;5.470;2023-08-06T12:12:51;19.50;99.90
13721;DHT22;6932;51.438;5.470;2023-08-06T12:15:17;19.60;99.90
13721;DHT22;6932;51.438;5.470;2023-08-06T12:17:43;19.60;99.90
13721;DHT22;6932;51.438;5.470;2023-08-06T12:20:10;19.60;99.90
13721;DHT22;6932;51.438;5.470;2023-08-06T12:22:36;19.70;99.90
13721;DHT22;6932;51.438;5.470;2023-08-06T12:25:10;19.70;99.90
13721;DHT22;6932;51.438;5.470;2023-08-06T12:27:41;19.60;99.90
13721;DHT22;6932;51.438;5.470;2023-08-06T12:30:08;19.70;99.90
13721;DHT22;6932;51.438;5.470;2023-08-06T12:32:35;19.60;99.90
13721;DHT22;6932;51.438;5.470;2023-08-06T12:35:01;19.60;99.90
13721;DHT22;6932;51.438;5.470;2023-08-06T12:37:28;19.60;99.90
13721;DHT22;6932;51.438;5.470;2023-08-06T12:39:54;19.60;99.90
13721;DHT22;6932;51.438;5.470;2023-08-06T12:42:20;19.60;99.90
13721;DHT22;6932;51.438;5.470;2023-08-06T12:44:48;19.60;99.90
13721;DHT22;6932;51.438;5.470;2023-08-06T12:47:14;19.60;99.90
13721;DHT22;6932;51.438;5.470;2023-08-06T12:49:39;19.60;99.90
13721;DHT22;6932;51.438;5.470;2023-08-06T12:52:05;19.70;99.90
13721;DHT22;6932;51.438;5.470;2023-08-06T12:54:33;19.60;99.90
13721;DHT22;6932;51.438;5.470;2023-08-06T12:57:02;19.60;99.90
13721;DHT22;6932;51.438;5.470;2023-08-06T12:59:28;19.60;99.90
13721;DHT22;6932;51.438;5.470;2023-08-06T13:01:54;19.60;99.90
13721;DHT22;6932;51.438;5.470;2023-08-06T13:04:20;19.60;99.90
13721;DHT22;6932;51.438;5.470;2023-08-06T13:06:45;19.60;99.90
13721;DHT22;6932;51.438;5.470;2023-08-06T13:09:12;19.70;99.90
13721;DHT22;6932;51.438;5.470;2023-08-06T13:11:42;19.80;99.90
13721;DHT22;6932;51.438;5.470;2023-08-06T13:14:12;19.80;99.90
13721;DHT22;6932;51.438;5.470;2023-08-06T13:16:40;19.90;99.90
13721;DHT22;6932;51.438;5.470;2023-08-06T13:19:07;19.90;99.90
13721;DHT22;6932;51.438;5.470;2023-08-06T13:21:35;20.00;99.90
13721;DHT22;6932;51.438;5.470;2023-08-06T13:24:23;20.00;99.90
13721;DHT22;6932;51.438;5.470;2023-08-06T13:26:49;20.10;99.90
13721;DHT22;6932;51.438;5.470;2023-08-06T13:29:15;20.20;99.90
13721;DHT22;6932;51.438;5.470;2023-08-06T13:31:40;20.20;99.90
13721;DHT22;6932;51.438;5.470;2023-08-06T13:34:06;20.30;99.90
13721;DHT22;6932;51.438;5.470;2023-08-06T13:36:32;20.30;99.90
13721;DHT22;6932;51.438;5.470;2023-08-06T13:38:57;20.40;99.90
13721;DHT22;6932;51.438;5.470;2023-08-06T13:41:23;20.50;99.90
13721;DHT22;6932;51.438;5.470;2023-08-06T13:43:49;20.50;99.90
13721;DHT22;6932;51.438;5.470;2023-08-06T13:46:15;20.50;99.90
13721;DHT22;6932;51.438;5.470;2023-08-06T13:48:46;20.50;99.90
13721;DHT22;6932;51.438;5.470;2023-08-06T13:51:13;20.50;99.90
13721;DHT22;6932;51.438;5.470;2023-08-06T13:53:39;20.50;99.90
13721;DHT22;6932;51.438;5.470;2023-08-06T13:56:06;20.40;99.90
13721;DHT22;6932;51.438;5.470;2023-08-06T13:58:38;20.40;99.90
13721;DHT22;6932;51.438;5.470;2023-08-06T14:01:04;20.40;99.90
13721;DHT22;6932;51.438;5.470;2023-08-06T14:03:30;20.30;99.90
13721;DHT22;6932;51.438;5.470;2023-08-06T14:05:56;20.30;99.90
13721;DHT22;6932;51.438;5.470;2023-08-06T14:08:25;20.20;99.90
13721;DHT22;6932;51.438;5.470;2023-08-06T14:10:52;20.20;99.90
13721;DHT22;6932;51.438;5.470;2023-08-06T14:13:17;20.10;99.90
13721;DHT22;6932;51.438;5.470;2023-08-06T14:15:43;20.10;99.90
13721;DHT22;6932;51.438;5.470;2023-08-06T14:18:13;20.10;99.90
13721;DHT22;6932;51.438;5.470;2023-08-06T14:20:39;20.20;99.90
13721;DHT22;6932;51.438;5.470;2023-08-06T14:23:06;20.20;99.90
13721;DHT22;6932;51.438;5.470;2023-08-06T14:25:32;20.20;99.90
13721;DHT22;6932;51.438;5.470;2023-08-06T14:27:57;20.30;99.90
13721;DHT22;6932;51.438;5.470;2023-08-06T14:30:23;20.40;99.90
13721;DHT22;6932;51.438;5.470;2023-08-06T14:32:49;20.40;99.90
13721;DHT22;6932;51.438;5.470;2023-08-06T14:35:15;20.50;99.90
13721;DHT22;6932;51.438;5.470;2023-08-06T14:37:40;20.50;99.90
13721;DHT22;6932;51.438;5.470;2023-08-06T14:40:07;20.50;99.90
13721;DHT22;6932;51.438;5.470;2023-08-06T14:42:33;20.60;99.90
13721;DHT22;6932;51.438;5.470;2023-08-06T14:44:59;20.60;99.90
13721;DHT22;6932;51.438;5.470;2023-08-06T14:47:25;20.70;99.90
13721;DHT22;6932;51.438;5.470;2023-08-06T14:49:51;20.70;99.90
13721;DHT22;6932;51.438;5.470;2023-08-06T14:52:16;20.80;99.90
13721;DHT22;6932;51.438;5.470;2023-08-06T14:54:42;20.80;99.90
13721;DHT22;6932;51.438;5.470;2023-08-06T14:57:09;20.90;99.90
13721;DHT22;6932;51.438;5.470;2023-08-06T14:59:36;20.90;99.90
13721;DHT22;6932;51.438;5.470;2023-08-06T15:02:01;20.90;99.90
13721;DHT22;6932;51.438;5.470;2023-08-06T15:04:27;21.00;99.90
13721;DHT22;6932;51.438;5.470;2023-08-06T15:06:54;21.00;99.90
13721;DHT22;6932;51.438;5.470;2023-08-06T15:09:20;21.00;99.90
13721;DHT22;6932;51.438;5.470;2023-08-06T15:11:47;20.90;99.90
13721;DHT22;6932;51.438;5.470;2023-08-06T15:14:13;20.90;99.90
13721;DHT22;6932;51.438;5.470;2023-08-06T15:16:40;20.80;99.90
13721;DHT22;6932;51.438;5.470;2023-08-06T15:19:06;20.70;99.90
13721;DHT22;6932;51.438;5.470;2023-08-06T15:21:32;20.50;99.90
13721;DHT22;6932;51.438;5.470;2023-08-06T15:23:58;20.50;99.90
13721;DHT22;6932;51.438;5.470;2023-08-06T15:26:24;20.30;99.90
13721;DHT22;6932;51.438;5.470;2023-08-06T15:28:50;20.20;99.90
13721;DHT22;6932;51.438;5.470;2023-08-06T15:31:20;20.00;99.90
13721;DHT22;6932;51.438;5.470;2023-08-06T15:33:47;19.90;99.90
13721;DHT22;6932;51.438;5.470;2023-08-06T15:36:12;19.80;99.90
13721;DHT22;6932;51.438;5.470;2023-08-06T15:38:38;19.70;99.90
13721;DHT22;6932;51.438;5.470;2023-08-06T15:41:04;19.60;99.90
13721;DHT22;6932;51.438;5.470;2023-08-06T15:43:30;19.60;99.90
13721;DHT22;6932;51.438;5.470;2023-08-06T15:45:55;19.50;99.90
13721;DHT22;6932;51.438;5.470;2023-08-06T15:48:21;19.40;99.90
13721;DHT22;6932;51.438;5.470;2023-08-06T15:50:47;19.40;99.90
13721;DHT22;6932;51.438;5.470;2023-08-06T15:53:12;19.40;99.90
13721;DHT22;6932;51.438;5.470;2023-08-06T15:55:38;19.30;99.90
13721;DHT22;6932;51.438;5.470;2023-08-06T15:58:04;19.30;99.90